createdAt,value
2023-03-11T00:01:05.570Z,89.31
2023-03-11T00:03:32.458Z,89.01
2023-03-11T00:06:01.832Z,89.70
2023-03-11T00:08:29.008Z,88.86
2023-03-11T00:10:58.989Z,89.35
2023-03-11T00:13:27.313Z,88.54
2023-03-11T00:15:59.758Z,88.77
2023-03-11T00:18:30.329Z,88.38
2023-03-11T00:20:59.127Z,88.41
2023-03-11T00:23:27.133Z,88.79
2023-03-11T00:25:54.641Z,89.30
2023-03-11T00:28:25.642Z,88.64
2023-03-11T00:30:52.877Z,88.45
2023-03-11T00:33:19.877Z,87.38
2023-03-11T00:35:46.719Z,88.18
2023-03-11T00:38:16.214Z,88.77
2023-03-11T00:40:45.012Z,89.77
2023-03-11T00:43:12.963Z,90.55
2023-03-11T00:45:40.308Z,91.66
2023-03-11T00:48:08.210Z,91.71
2023-03-11T00:50:37.184Z,92.48
2023-03-11T00:53:05.268Z,93.01
2023-03-11T00:55:34.711Z,93.80
2023-03-11T00:58:05.947Z,94.62
2023-03-11T01:00:33.122Z,94.32
2023-03-11T01:03:00.568Z,94.31
2023-03-11T01:05:31.272Z,94.53
2023-03-11T01:07:58.997Z,95.11
2023-03-11T01:10:26.364Z,95.60
2023-03-11T01:12:53.327Z,95.46
2023-03-11T01:15:31.217Z,94.87
2023-03-11T01:17:58.257Z,94.68
2023-03-11T01:20:25.589Z,94.69
2023-03-11T01:22:52.731Z,95.07
2023-03-11T01:25:21.634Z,95.00
2023-03-11T01:27:48.688Z,95.12
2023-03-11T01:30:19.319Z,95.77
2023-03-11T01:32:46.844Z,95.07
2023-03-11T01:35:40.218Z,94.86
2023-03-11T01:38:07.115Z,94.36
2023-03-11T01:40:44.311Z,94.01
2023-03-11T01:43:41.467Z,94.33
2023-03-11T01:46:33.626Z,95.20
2023-03-11T01:49:03.369Z,95.59
2023-03-11T01:51:41.981Z,96.44
2023-03-11T01:54:30.635Z,97.48
2023-03-11T01:56:59.672Z,97.84
2023-03-11T01:59:32.082Z,98.17
2023-03-11T02:02:20.305Z,97.88
2023-03-11T02:04:48.842Z,98.48
2023-03-11T02:07:16.113Z,97.97
2023-03-11T02:09:43.242Z,98.60
2023-03-11T02:12:13.805Z,98.90
2023-03-11T02:14:46.140Z,97.51
2023-03-11T02:17:13.810Z,98.29
2023-03-11T02:20:19.787Z,98.50
2023-03-11T02:22:48.777Z,97.68
2023-03-11T02:25:32.668Z,97.51
2023-03-11T02:28:01.395Z,97.31
2023-03-11T02:30:29.530Z,96.67
2023-03-11T02:32:56.830Z,96.53
2023-03-11T02:35:24.152Z,97.38
2023-03-11T02:37:53.265Z,97.11
2023-03-11T02:40:24.623Z,97.09
2023-03-11T02:42:56.393Z,96.96
2023-03-11T02:45:30.404Z,98.05
2023-03-11T02:48:00.011Z,97.01
2023-03-11T02:50:30.677Z,97.18
2023-03-11T02:52:57.745Z,96.91
2023-03-11T02:55:25.098Z,96.20
2023-03-11T02:57:52.014Z,96.15
2023-03-11T03:00:19.570Z,95.92
2023-03-11T03:02:47.367Z,96.15
2023-03-11T03:05:14.329Z,96.49
2023-03-11T03:07:53.271Z,95.88
2023-03-11T03:10:22.575Z,95.94
2023-03-11T03:12:49.953Z,96.48
2023-03-11T03:15:17.282Z,96.32
2023-03-11T03:17:44.669Z,96.04
2023-03-11T03:20:14.438Z,95.73
2023-03-11T03:22:42.413Z,94.92
2023-03-11T03:25:10.581Z,94.73
2023-03-11T03:27:39.798Z,95.70
2023-03-11T03:30:07.851Z,94.76
2023-03-11T03:32:36.045Z,94.73
2023-03-11T03:35:09.750Z,94.66
2023-03-11T03:37:37.672Z,96.04
2023-03-11T03:40:08.500Z,96.77
2023-03-11T03:42:37.768Z,96.46
2023-03-11T03:45:07.351Z,95.95
2023-03-11T03:47:35.679Z,96.35
2023-03-11T03:50:05.442Z,95.91
2023-03-11T03:52:32.557Z,94.90
2023-03-11T03:55:02.878Z,95.06
2023-03-11T03:57:30.147Z,94.12
2023-03-11T03:59:57.126Z,94.08
2023-03-11T04:02:24.489Z,92.31
2023-03-11T04:04:51.849Z,92.90
2023-03-11T04:07:24.655Z,93.37
2023-03-11T04:09:53.260Z,93.20
2023-03-11T04:12:20.348Z,93.25
2023-03-11T04:14:47.452Z,92.57
2023-03-11T04:17:18.022Z,93.10
2023-03-11T04:19:45.385Z,92.96
2023-03-11T04:22:12.453Z,93.17
2023-03-11T04:24:39.294Z,92.85
2023-03-11T04:27:06.414Z,92.56
2023-03-11T04:29:33.491Z,91.82
2023-03-11T04:32:00.943Z,90.87
2023-03-11T04:34:27.885Z,91.08
2023-03-11T04:36:56.573Z,90.68
2023-03-11T04:39:23.652Z,90.89
2023-03-11T04:41:51.935Z,90.10
2023-03-11T04:44:19.590Z,89.57
2023-03-11T04:46:46.637Z,88.64
2023-03-11T04:49:13.906Z,88.53
2023-03-11T04:51:42.936Z,89.22
2023-03-11T04:54:10.253Z,88.68
2023-03-11T04:56:37.283Z,89.62
2023-03-11T04:59:04.402Z,89.46
2023-03-11T05:01:31.765Z,87.75
2023-03-11T05:03:58.718Z,87.85
2023-03-11T05:06:25.785Z,88.89
2023-03-11T05:08:52.756Z,88.22
2023-03-11T05:11:19.670Z,87.66
2023-03-11T05:13:55.322Z,86.63
2023-03-11T05:16:22.393Z,86.70
2023-03-11T05:18:49.386Z,86.13
2023-03-11T05:21:16.504Z,85.06
2023-03-11T05:23:44.881Z,85.66
2023-03-11T05:26:12.752Z,86.03
2023-03-11T05:28:40.249Z,86.75
2023-03-11T05:31:11.208Z,85.60
2023-03-11T05:33:38.596Z,85.73
2023-03-11T05:36:11.590Z,85.94
2023-03-11T05:38:38.966Z,85.75
2023-03-11T05:41:06.678Z,84.70
2023-03-11T05:43:33.888Z,85.93
2023-03-11T05:46:00.960Z,86.59
2023-03-11T05:48:28.613Z,87.87
2023-03-11T05:50:55.720Z,88.50
2023-03-11T05:53:22.952Z,86.05
2023-03-11T05:55:59.900Z,86.08
2023-03-11T05:58:28.040Z,85.51
2023-03-11T06:00:55.110Z,85.42
2023-03-11T06:03:22.515Z,85.10
2023-03-11T06:05:51.182Z,84.51
2023-03-11T06:08:19.480Z,84.50
2023-03-11T06:10:48.853Z,85.97
2023-03-11T06:13:16.172Z,86.92
2023-03-11T06:15:46.184Z,87.17
2023-03-11T06:18:13.464Z,87.82
2023-03-11T06:20:40.425Z,88.47
2023-03-11T06:23:07.396Z,89.90
2023-03-11T06:25:34.493Z,88.36
2023-03-11T06:28:01.425Z,86.85
2023-03-11T06:30:28.670Z,86.14
2023-03-11T06:32:55.969Z,84.28
2023-03-11T06:35:25.465Z,84.04
2023-03-11T06:37:52.837Z,84.68
2023-03-11T06:40:20.121Z,85.54
2023-03-11T06:42:50.465Z,85.97
2023-03-11T06:45:19.590Z,86.38
2023-03-11T06:47:47.485Z,86.87
2023-03-11T06:50:14.400Z,87.33
2023-03-11T06:52:41.898Z,87.29
2023-03-11T06:55:09.525Z,87.32
2023-03-11T06:57:36.865Z,87.53
2023-03-11T07:00:06.954Z,87.85
2023-03-11T07:02:33.978Z,87.44
2023-03-11T07:05:01.266Z,87.28
2023-03-11T07:07:28.341Z,86.66
2023-03-11T07:09:58.459Z,86.32
2023-03-11T07:12:25.997Z,85.61
2023-03-11T07:14:57.182Z,85.49
2023-03-11T07:17:25.360Z,87.26
2023-03-11T07:20:11.393Z,85.90
2023-03-11T07:22:38.380Z,84.90
2023-03-11T07:25:05.856Z,84.94
2023-03-11T07:27:32.885Z,84.74
2023-03-11T07:30:01.946Z,85.77
2023-03-11T07:32:29.086Z,86.16
2023-03-11T07:34:57.116Z,85.94
2023-03-11T07:37:24.077Z,85.79
2023-03-11T07:39:51.109Z,85.37
2023-03-11T07:42:18.029Z,86.63
2023-03-11T07:44:45.032Z,86.87
2023-03-11T07:47:11.898Z,88.16
2023-03-11T07:49:38.954Z,87.43
2023-03-11T07:52:06.655Z,87.62
2023-03-11T07:54:33.653Z,87.03
2023-03-11T07:57:00.675Z,87.37
2023-03-11T07:59:28.472Z,86.27
2023-03-11T08:01:57.154Z,86.52
2023-03-11T08:04:24.464Z,86.60
2023-03-11T08:06:51.422Z,86.22
2023-03-11T08:09:18.462Z,86.35
2023-03-11T08:11:45.512Z,88.35
2023-03-11T08:14:12.414Z,88.77
2023-03-11T08:16:41.426Z,89.84
2023-03-11T08:19:13.915Z,88.89
2023-03-11T08:21:41.273Z,89.53
2023-03-11T08:24:10.878Z,89.86
2023-03-11T08:26:37.793Z,90.21
2023-03-11T08:29:04.910Z,90.73
2023-03-11T08:31:35.310Z,89.82
2023-03-11T08:34:07.704Z,87.75
2023-03-11T08:36:35.965Z,87.92
2023-03-11T08:39:03.751Z,87.50
2023-03-11T08:41:30.788Z,88.73
2023-03-11T08:43:59.036Z,90.14
2023-03-11T08:46:28.125Z,88.14
2023-03-11T08:48:56.096Z,86.96
2023-03-11T08:51:23.886Z,85.76
2023-03-11T08:53:51.893Z,85.62
2023-03-11T08:56:19.656Z,85.50
2023-03-11T08:58:47.225Z,88.38
2023-03-11T09:01:14.168Z,85.65
2023-03-11T09:03:44.344Z,86.60
2023-03-11T09:06:15.772Z,84.09
2023-03-11T09:08:44.172Z,83.42
2023-03-11T09:11:13.692Z,84.53
2023-03-11T09:13:42.617Z,85.95
2023-03-11T09:16:20.359Z,85.99
2023-03-11T09:18:47.861Z,90.36
2023-03-11T09:21:19.019Z,87.24
2023-03-11T09:23:46.186Z,88.25
2023-03-11T09:26:14.215Z,83.84
2023-03-11T09:28:42.494Z,83.55
2023-03-11T09:31:09.866Z,82.15
2023-03-11T09:33:39.459Z,81.27
2023-03-11T09:36:07.777Z,82.23
2023-03-11T09:38:34.833Z,82.06
2023-03-11T09:41:14.157Z,80.31
2023-03-11T09:43:56.261Z,80.85
2023-03-11T09:46:49.335Z,82.86
2023-03-11T09:49:53.690Z,99.04
2023-03-11T09:53:09.445Z,81.77
2023-03-11T09:55:44.767Z,95.48
2023-03-11T09:58:23.995Z,83.56
2023-03-11T10:00:54.009Z,82.69
2023-03-11T10:03:39.744Z,81.25
2023-03-11T10:06:15.387Z,77.57
2023-03-11T10:09:03.411Z,77.88
2023-03-11T10:11:45.065Z,80.82
2023-03-11T10:14:12.117Z,80.47
2023-03-11T10:17:17.662Z,85.99
2023-03-11T10:20:02.411Z,84.39
2023-03-11T10:22:51.654Z,79.22
2023-03-11T10:25:57.532Z,78.99
2023-03-11T10:28:39.482Z,80.68
2023-03-11T10:31:20.567Z,82.58
2023-03-11T10:34:03.284Z,83.90
2023-03-11T10:36:40.032Z,84.49
2023-03-11T10:39:06.918Z,86.71
2023-03-11T10:41:45.164Z,87.17
2023-03-11T10:44:11.991Z,89.21
2023-03-11T10:49:46.895Z,88.60
2023-03-11T10:52:14.373Z,88.31
2023-03-11T10:54:46.547Z,87.04
2023-03-11T10:57:29.094Z,88.00
2023-03-11T10:59:59.025Z,87.77
2023-03-11T11:02:53.111Z,91.15
2023-03-11T11:05:22.943Z,87.56
2023-03-11T11:08:17.310Z,90.65
2023-03-11T11:10:59.997Z,86.43
2023-03-11T11:13:30.941Z,87.80
2023-03-11T11:16:19.114Z,86.59
2023-03-11T11:18:50.097Z,91.56
2023-03-11T11:21:45.586Z,86.88
2023-03-11T11:24:29.276Z,87.83
2023-03-11T11:27:25.892Z,86.79
2023-03-11T11:30:25.787Z,84.43
2023-03-11T11:32:55.068Z,84.98
2023-03-11T11:35:25.009Z,85.26
2023-03-11T11:38:00.557Z,85.61
2023-03-11T11:40:32.956Z,87.59
2023-03-11T11:43:06.621Z,87.17
2023-03-11T11:45:39.866Z,88.51
2023-03-11T11:48:35.291Z,86.96
2023-03-11T11:51:06.698Z,87.08
2023-03-11T11:53:58.178Z,87.17
2023-03-11T11:56:25.995Z,88.83
2023-03-11T11:58:56.142Z,86.71
2023-03-11T12:01:40.495Z,87.19
2023-03-11T12:04:25.505Z,85.54
2023-03-11T12:07:11.235Z,79.50
2023-03-11T12:10:23.001Z,79.25
2023-03-11T12:13:06.346Z,79.01
2023-03-11T12:15:59.601Z,81.24
2023-03-11T12:18:35.543Z,79.54
2023-03-11T12:21:30.024Z,80.07
2023-03-11T12:24:12.924Z,78.82
2023-03-11T12:26:48.457Z,79.53
2023-03-11T12:29:44.296Z,81.31
2023-03-11T12:32:41.169Z,81.34
2023-03-11T12:35:26.648Z,79.04
2023-03-11T12:38:15.303Z,80.42
2023-03-11T12:41:05.564Z,78.13
2023-03-11T12:43:36.379Z,77.05
2023-03-11T12:46:12.268Z,77.36
2023-03-11T12:49:13.858Z,78.35
2023-03-11T12:51:51.125Z,79.58
2023-03-11T12:54:24.945Z,79.98
2023-03-11T12:57:01.575Z,80.24
2023-03-11T12:59:34.864Z,81.92
2023-03-11T13:02:39.927Z,80.95
2023-03-11T13:05:24.354Z,82.43
2023-03-11T13:08:01.710Z,82.45
2023-03-11T13:10:37.392Z,80.00
2023-03-11T13:13:34.718Z,77.82
2023-03-11T13:16:14.552Z,77.53
2023-03-11T13:18:45.522Z,77.84
2023-03-11T13:21:40.476Z,77.41
2023-03-11T13:24:19.366Z,76.84
2023-03-11T13:27:15.262Z,77.43
2023-03-11T13:29:57.945Z,77.08
2023-03-11T13:32:48.103Z,79.03
2023-03-11T13:35:57.363Z,79.22
2023-03-11T13:38:35.213Z,89.99
2023-03-11T13:41:05.885Z,100.00
2023-03-11T13:43:33.051Z,81.22
2023-03-11T13:46:11.911Z,78.70
2023-03-11T13:48:46.560Z,78.13
2023-03-11T13:51:18.515Z,79.44
2023-03-11T13:54:05.686Z,76.83
2023-03-11T13:56:36.858Z,78.98
2023-03-11T13:59:36.557Z,78.75
2023-03-11T14:02:09.682Z,79.42
2023-03-11T14:04:40.831Z,79.41
2023-03-11T14:07:35.593Z,79.34
2023-03-11T14:10:24.198Z,77.24
2023-03-11T14:12:51.965Z,77.87
2023-03-11T14:15:27.147Z,76.21
2023-03-11T14:17:54.969Z,75.62
2023-03-11T14:20:25.729Z,76.46
2023-03-11T14:22:55.274Z,78.83
2023-03-11T14:25:31.779Z,77.56
2023-03-11T14:28:04.957Z,78.94
2023-03-11T14:30:34.643Z,77.56
2023-03-11T14:33:20.845Z,76.44
2023-03-11T14:36:03.730Z,79.25
2023-03-11T14:38:32.781Z,77.62
2023-03-11T14:41:15.682Z,78.41
2023-03-11T14:43:47.949Z,78.39
2023-03-11T14:46:28.192Z,80.15
2023-03-11T14:48:57.921Z,80.16
2023-03-11T14:51:32.197Z,79.97
2023-03-11T14:54:07.777Z,79.63
2023-03-11T14:56:40.469Z,79.44
2023-03-11T14:59:13.264Z,79.74
2023-03-11T15:01:45.645Z,80.01
2023-03-11T15:04:13.633Z,80.86
2023-03-11T15:06:44.120Z,80.26
2023-03-11T15:09:17.362Z,79.70
2023-03-11T15:11:53.216Z,79.57
2023-03-11T15:14:24.347Z,80.56
2023-03-11T15:16:52.715Z,81.19
2023-03-11T15:19:28.941Z,80.64
2023-03-11T15:22:00.111Z,80.51
2023-03-11T15:24:30.298Z,80.39
2023-03-11T15:27:02.793Z,80.29
2023-03-11T15:29:31.256Z,80.90
2023-03-11T15:31:59.015Z,81.61
2023-03-11T15:34:30.930Z,81.75
2023-03-11T15:37:04.901Z,81.64
2023-03-11T15:39:31.972Z,83.20
2023-03-11T15:42:08.536Z,82.21
2023-03-11T15:44:37.292Z,83.36
2023-03-11T15:47:04.937Z,82.31
2023-03-11T15:49:31.931Z,82.13
2023-03-11T15:52:02.489Z,81.45
2023-03-11T15:54:29.976Z,81.27
2023-03-11T15:56:58.903Z,82.17
2023-03-11T15:59:26.661Z,81.47
2023-03-11T16:01:53.571Z,82.51
2023-03-11T16:04:39.427Z,82.20
2023-03-11T16:07:08.738Z,82.41
2023-03-11T16:09:35.763Z,82.29
2023-03-11T16:12:13.787Z,81.63
2023-03-11T16:14:40.783Z,81.74
2023-03-11T16:17:07.693Z,82.01
2023-03-11T16:19:34.862Z,82.50
2023-03-11T16:22:03.134Z,81.52
2023-03-11T16:24:30.070Z,82.63
2023-03-11T16:26:57.163Z,81.71
2023-03-11T16:29:24.317Z,81.78
2023-03-11T16:31:51.296Z,82.26
2023-03-11T16:34:19.752Z,81.86
2023-03-11T16:36:46.958Z,81.79
2023-03-11T16:39:14.785Z,81.63
2023-03-11T16:41:44.643Z,81.33
2023-03-11T16:44:30.998Z,82.28
2023-03-11T16:46:58.088Z,81.48
2023-03-11T16:49:25.200Z,80.75
2023-03-11T16:51:52.008Z,81.24
2023-03-11T16:54:19.124Z,80.71
2023-03-11T16:56:46.008Z,80.70
2023-03-11T16:59:13.009Z,80.75
2023-03-11T17:01:40.509Z,80.14
2023-03-11T17:04:08.052Z,80.49
2023-03-11T17:06:35.347Z,81.73
2023-03-11T17:09:02.499Z,81.89
2023-03-11T17:11:30.941Z,80.22
2023-03-11T17:14:10.047Z,80.88
2023-03-11T17:16:42.482Z,79.95
2023-03-11T17:19:09.401Z,81.55
2023-03-11T17:21:36.242Z,79.36
2023-03-11T17:24:03.364Z,80.32
2023-03-11T17:26:31.752Z,80.60
2023-03-11T17:28:59.280Z,81.33
2023-03-11T17:31:26.348Z,80.90
2023-03-11T17:34:11.801Z,80.60
2023-03-11T17:36:39.253Z,80.37
2023-03-11T17:39:06.421Z,80.57
2023-03-11T17:41:33.230Z,80.21
2023-03-11T17:44:00.541Z,81.26
2023-03-11T17:46:27.613Z,80.31
2023-03-11T17:48:54.996Z,80.53
2023-03-11T17:51:24.359Z,80.52
2023-03-11T17:53:52.862Z,80.63
2023-03-11T17:56:23.713Z,81.15
2023-03-11T17:58:50.984Z,80.80
2023-03-11T18:01:21.875Z,79.95
2023-03-11T18:03:49.943Z,81.25
2023-03-11T18:06:20.130Z,81.86
2023-03-11T18:08:47.069Z,82.01
2023-03-11T18:11:18.900Z,81.34
2023-03-11T18:13:46.679Z,80.23
2023-03-11T18:16:22.577Z,80.78
2023-03-11T18:18:50.081Z,81.09
2023-03-11T18:21:22.452Z,79.80
2023-03-11T18:23:49.643Z,80.14
2023-03-11T18:26:18.903Z,79.92
2023-03-11T18:28:46.128Z,80.03
2023-03-11T18:31:15.880Z,80.11
2023-03-11T18:33:49.443Z,79.72
2023-03-11T18:36:19.665Z,79.80
2023-03-11T18:38:46.705Z,79.63
2023-03-11T18:41:14.105Z,79.40
2023-03-11T18:43:41.225Z,79.25
2023-03-11T18:46:10.034Z,78.66
2023-03-11T18:48:38.393Z,79.73
2023-03-11T18:51:07.332Z,79.39
2023-03-11T18:53:34.653Z,78.79
2023-03-11T18:56:04.554Z,79.01
2023-03-11T18:58:31.734Z,79.07
2023-03-11T19:01:12.369Z,78.29
2023-03-11T19:03:39.760Z,79.12
2023-03-11T19:06:11.080Z,77.82
2023-03-11T19:08:38.547Z,78.13
2023-03-11T19:11:14.269Z,78.63
2023-03-11T19:13:47.029Z,78.42
2023-03-11T19:16:17.860Z,77.98
2023-03-11T19:18:45.721Z,77.49
2023-03-11T19:21:14.937Z,78.09
2023-03-11T19:23:41.992Z,77.33
2023-03-11T19:26:09.627Z,76.50
2023-03-11T19:28:36.635Z,77.41
2023-03-11T19:31:04.733Z,76.50
2023-03-11T19:33:32.102Z,76.14
2023-03-11T19:36:01.424Z,74.78
2023-03-11T19:38:29.361Z,75.51
2023-03-11T19:41:12.077Z,75.77
2023-03-11T19:43:38.914Z,75.12
2023-03-11T19:46:07.315Z,74.95
2023-03-11T19:48:34.712Z,75.38
2023-03-11T19:51:06.061Z,76.28
2023-03-11T19:53:34.586Z,74.98
2023-03-11T19:56:05.066Z,74.30
2023-03-11T19:58:32.319Z,74.48
2023-03-11T20:00:59.731Z,74.45
2023-03-11T20:03:28.370Z,74.39
2023-03-11T20:05:58.110Z,73.54
2023-03-11T20:08:26.540Z,74.32
2023-03-11T20:10:54.613Z,74.36
2023-03-11T20:13:22.476Z,74.63
2023-03-11T20:15:50.322Z,74.03
2023-03-11T20:18:18.338Z,74.75
2023-03-11T20:20:47.177Z,74.76
2023-03-11T20:23:14.608Z,74.08
2023-03-11T20:25:44.688Z,74.44
2023-03-11T20:28:11.719Z,74.11
2023-03-11T20:30:39.299Z,73.88
2023-03-11T20:33:11.101Z,74.41
2023-03-11T20:35:38.119Z,74.46
2023-03-11T20:38:05.165Z,72.24
2023-03-11T20:40:32.255Z,73.35
2023-03-11T20:43:00.161Z,74.50
2023-03-11T20:45:27.126Z,74.43
2023-03-11T20:47:54.233Z,74.76
2023-03-11T20:50:22.341Z,74.73
2023-03-11T20:52:51.055Z,75.00
2023-03-11T20:55:18.480Z,74.00
2023-03-11T20:57:45.420Z,74.09
2023-03-11T21:00:14.170Z,73.99
2023-03-11T21:03:02.479Z,73.74
2023-03-11T21:05:29.681Z,73.81
2023-03-11T21:08:15.240Z,72.29
2023-03-11T21:10:42.720Z,72.69
2023-03-11T21:13:09.769Z,72.25
2023-03-11T21:15:36.955Z,71.20
2023-03-11T21:18:04.352Z,70.58
2023-03-11T21:20:31.546Z,71.35
2023-03-11T21:22:58.603Z,68.97
2023-03-11T21:25:25.642Z,66.25
2023-03-11T21:27:52.583Z,65.91
2023-03-11T21:30:19.524Z,66.00
2023-03-11T21:32:46.656Z,65.35
2023-03-11T21:35:13.919Z,66.19
2023-03-11T21:37:42.176Z,65.70
2023-03-11T21:40:09.926Z,67.00
2023-03-11T21:42:36.954Z,66.25
2023-03-11T21:45:04.152Z,66.61
2023-03-11T21:47:31.089Z,66.14
2023-03-11T21:49:58.084Z,65.97
2023-03-11T21:52:25.199Z,65.50
2023-03-11T21:54:52.076Z,65.55
2023-03-11T21:57:20.039Z,66.09
2023-03-11T21:59:47.155Z,65.09
2023-03-11T22:02:15.996Z,64.36
2023-03-11T22:04:46.635Z,65.09
2023-03-11T22:07:13.709Z,65.16
2023-03-11T22:09:40.754Z,64.49
2023-03-11T22:12:07.973Z,65.66
2023-03-11T22:14:35.127Z,65.34
2023-03-11T22:17:03.581Z,65.55
2023-03-11T22:19:30.646Z,65.76
2023-03-11T22:21:57.677Z,66.76
2023-03-11T22:24:24.686Z,66.29
2023-03-11T22:26:51.584Z,66.68
2023-03-11T22:29:18.654Z,67.47
2023-03-11T22:31:45.779Z,67.92
2023-03-11T22:34:12.599Z,69.33
2023-03-11T22:36:39.500Z,69.73
2023-03-11T22:39:06.636Z,70.75
2023-03-11T22:41:33.821Z,69.72
2023-03-11T22:44:00.971Z,69.22
2023-03-11T22:46:29.057Z,68.74
2023-03-11T22:48:56.142Z,67.89
2023-03-11T22:51:23.402Z,66.34
2023-03-11T22:53:50.345Z,64.59
2023-03-11T22:56:18.501Z,64.07
2023-03-11T22:58:45.960Z,64.38
2023-03-11T23:01:13.534Z,63.53
2023-03-11T23:03:42.638Z,64.54
2023-03-11T23:06:13.898Z,62.93
2023-03-11T23:08:40.759Z,63.03
2023-03-11T23:11:10.553Z,62.35
2023-03-11T23:13:38.458Z,61.46
2023-03-11T23:16:14.757Z,60.69
2023-03-11T23:18:42.586Z,61.12
2023-03-11T23:21:24.790Z,61.33
2023-03-11T23:23:52.503Z,61.31
2023-03-11T23:26:20.614Z,60.83
2023-03-11T23:28:48.905Z,59.34
2023-03-11T23:31:15.973Z,60.71
2023-03-11T23:33:43.083Z,59.16
2023-03-11T23:36:13.654Z,59.51
2023-03-11T23:38:42.375Z,59.85
2023-03-11T23:41:12.634Z,59.04
2023-03-11T23:43:40.438Z,57.08
2023-03-11T23:46:08.402Z,57.17
2023-03-11T23:48:35.393Z,56.59
2023-03-11T23:51:02.569Z,56.86
2023-03-11T23:53:29.527Z,57.37
2023-03-11T23:55:56.498Z,56.93
2023-03-11T23:58:23.681Z,58.09
